Wetterstation Vordersexau
Wetterdaten: Woche 17.09.12 - 23.09.12 (KW38)
Datum Zeit Temp. A. Feuchte A. Luftdruck Regen Wind Richtung Taupunkt Windchill Windben
17.09.2012 00:00 11,9 C 82 % 1011,8 hPa 0,0 l/m 1,9 km/h N-NO 8,9 C 11,9 C 1,1 km/h
17.09.2012 01:00 11,9 C 81 % 1011,7 hPa 0,0 l/m 2,6 km/h S-SO 8,7 C 11,9 C 1,4 km/h
17.09.2012 02:00 11,8 C 82 % 1011,6 hPa 0,0 l/m 1,9 km/h O 8,8 C 11,8 C 1,1 km/h
17.09.2012 03:00 11,2 C 81 % 1012,4 hPa 0,0 l/m 0,0 km/h S-SO 8,1 C 11,2 C 0,0 km/h
17.09.2012 04:00 11,3 C 80 % 1012,3 hPa 0,0 l/m 0,0 km/h SO 8,0 C 11,3 C 0,0 km/h
17.09.2012 05:00 10,6 C 81 % 1012,4 hPa 0,0 l/m 0,0 km/h SO 7,5 C 10,6 C 0,0 km/h
17.09.2012 06:00 10,9 C 79 % 1012,4 hPa 0,0 l/m 0,0 km/h SO 7,4 C 10,9 C 0,0 km/h
17.09.2012 07:00 11,0 C 78 % 1012,7 hPa 0,0 l/m 0,0 km/h SO 7,3 C 11,0 C 0,0 km/h
17.09.2012 08:00 13,2 C 75 % 1013,1 hPa 0,0 l/m 1,9 km/h SO 8,9 C 13,2 C 1,1 km/h
17.09.2012 09:00 19,1 C 81 % 1013,2 hPa 0,0 l/m 0,0 km/h N-NO 15,8 C 19,1 C 0,0 km/h
17.09.2012 10:00 22,8 C 64 % 1013,8 hPa 0,0 l/m 0,0 km/h W 15,6 C 22,8 C 0,0 km/h
17.09.2012 11:00 25,6 C 55 % 1014,2 hPa 0,0 l/m 3,2 km/h SO 15,9 C 25,6 C 1,8 km/h
17.09.2012 12:00 27,8 C 49 % 1013,7 hPa 0,0 l/m 0,0 km/h W 16,1 C 27,8 C 0,0 km/h
17.09.2012 13:00 27,4 C 46 % 1013,5 hPa 0,0 l/m 0,0 km/h W 14,7 C 27,4 C 0,0 km/h
17.09.2012 14:00 26,9 C 46 % 1013,2 hPa 0,0 l/m 0,0 km/h S 14,3 C 26,9 C 0,0 km/h
17.09.2012 15:00 29,3 C 40 % 1012,8 hPa 0,0 l/m 0,0 km/h SW 14,3 C 29,3 C 0,0 km/h
17.09.2012 16:00 31,3 C 35 % 1012,5 hPa 0,0 l/m 0,0 km/h W 14,0 C 31,3 C 0,0 km/h
17.09.2012 17:00 31,8 C 35 % 1012,3 hPa 0,0 l/m 0,0 km/h W-NW 14,4 C 31,8 C 0,0 km/h
17.09.2012 18:00 32,1 C 33 % 1012,4 hPa 0,0 l/m 0,0 km/h O 13,8 C 32,1 C 0,0 km/h
17.09.2012 19:00 23,3 C 52 % 1012,3 hPa 0,0 l/m 0,0 km/h SO 12,9 C 23,3 C 0,0 km/h
17.09.2012 20:00 16,0 C 72 % 1012,4 hPa 0,0 l/m 0,0 km/h SO 11,0 C 16,0 C 0,0 km/h
17.09.2012 21:00 14,5 C 79 % 1012,7 hPa 0,0 l/m 0,6 km/h S-SO 10,9 C 14,5 C 0,4 km/h
17.09.2012 22:00 13,9 C 81 % 1012,8 hPa 0,0 l/m 3,2 km/h S-SO 10,7 C 13,9 C 1,8 km/h
17.09.2012 23:00 13,3 C 82 % 1012,7 hPa 0,0 l/m 0,0 km/h SO 10,3 C 13,3 C 0,0 km/h
18.09.2012 00:00 12,6 C 83 % 1012,7 hPa 0,0 l/m 0,0 km/h O-SO 9,8 C 12,6 C 0,0 km/h
18.09.2012 01:00 12,1 C 82 % 1012,2 hPa 0,0 l/m 7,1 km/h O-SO 9,1 C 11,6 C 4,0 km/h
18.09.2012 02:00 11,3 C 83 % 1012,0 hPa 0,0 l/m 5,2 km/h SO 8,5 C 11,3 C 2,9 km/h
18.09.2012 03:00 10,8 C 82 % 1012,0 hPa 0,0 l/m 0,0 km/h NO 7,9 C 10,8 C 0,0 km/h
18.09.2012 04:00 10,4 C 82 % 1012,0 hPa 0,0 l/m 0,0 km/h SO 7,5 C 10,4 C 0,0 km/h
18.09.2012 05:00 10,1 C 81 % 1011,7 hPa 0,0 l/m 0,0 km/h NO 7,0 C 10,1 C 0,0 km/h
18.09.2012 06:00 9,7 C 80 % 1011,7 hPa 0,0 l/m 0,0 km/h SO 6,4 C 9,7 C 0,0 km/h
18.09.2012 07:00 10,4 C 79 % 1011,9 hPa 0,0 l/m 0,0 km/h SO 6,9 C 10,4 C 0,0 km/h
18.09.2012 08:00 11,3 C 76 % 1011,7 hPa 0,0 l/m 2,6 km/h S-SO 7,2 C 11,3 C 1,4 km/h
18.09.2012 09:00 17,4 C 82 % 1011,4 hPa 0,0 l/m 5,2 km/h SO 14,3 C 17,4 C 2,9 km/h
18.09.2012 10:00 22,4 C 69 % 1011,3 hPa 0,0 l/m 0,0 km/h W-SW 16,4 C 22,4 C 0,0 km/h
18.09.2012 11:00 29,0 C 48 % 1011,0 hPa 0,0 l/m 0,0 km/h W-SW 16,9 C 29,0 C 0,0 km/h
18.09.2012 12:00 29,4 C 47 % 1010,6 hPa 0,0 l/m 0,0 km/h W 16,9 C 29,4 C 0,0 km/h
18.09.2012 13:00 27,4 C 48 % 1010,1 hPa 0,0 l/m 4,5 km/h W 15,4 C 27,4 C 2,5 km/h
18.09.2012 14:00 27,0 C 50 % 1009,7 hPa 0,0 l/m 9,1 km/h S 15,7 C 26,5 C 5,0 km/h
18.09.2012 15:00 27,2 C 50 % 1009,3 hPa 0,0 l/m 2,6 km/h SW 15,9 C 27,2 C 1,4 km/h
18.09.2012 16:00 23,9 C 53 % 1009,3 hPa 0,0 l/m 6,5 km/h W-SW 13,7 C 23,9 C 3,6 km/h
18.09.2012 17:00 22,7 C 57 % 1009,4 hPa 0,0 l/m 20,7 km/h S-SW 13,7 C 19,6 C 11,5 km/h
18.09.2012 18:00 20,3 C 67 % 1009,8 hPa 0,0 l/m 3,9 km/h S-SO 14,0 C 20,3 C 2,2 km/h
18.09.2012 19:00 18,3 C 74 % 1009,9 hPa 0,0 l/m 0,0 km/h S 13,6 C 18,3 C 0,0 km/h
18.09.2012 20:00 16,8 C 79 % 1010,5 hPa 0,4 l/m 0,0 km/h NW 13,1 C 16,8 C 0,0 km/h
18.09.2012 21:00 16,1 C 81 % 1011,5 hPa 1,8 l/m 3,2 km/h O-NO 12,8 C 16,1 C 1,8 km/h
18.09.2012 22:00 15,3 C 80 % 1012,5 hPa 10,7 l/m 0,0 km/h NO 11,9 C 15,3 C 0,0 km/h
18.09.2012 23:00 14,5 C 79 % 1012,8 hPa 9,6 l/m 0,0 km/h N-NO 10,9 C 14,5 C 0,0 km/h
19.09.2012 00:00 13,9 C 79 % 1013,1 hPa 1,4 l/m 0,0 km/h N-NO 10,3 C 13,9 C 0,0 km/h
19.09.2012 01:00 13,1 C 79 % 1013,4 hPa 0,7 l/m 0,0 km/h N-NO 9,5 C 13,1 C 0,0 km/h
19.09.2012 02:00 12,5 C 78 % 1014,0 hPa 1,1 l/m 0,0 km/h S-SO 8,8 C 12,5 C 0,0 km/h
19.09.2012 03:00 12,1 C 78 % 1014,4 hPa 0,0 l/m 0,0 km/h S-SO 8,4 C 12,1 C 0,0 km/h
19.09.2012 04:00 11,9 C 78 % 1014,3 hPa 0,4 l/m 0,0 km/h S-SO 8,2 C 11,9 C 0,0 km/h
19.09.2012 05:00 11,9 C 78 % 1014,6 hPa 0,0 l/m 0,0 km/h O-NO 8,2 C 11,9 C 0,0 km/h
19.09.2012 06:00 11,8 C 77 % 1014,8 hPa 0,0 l/m 0,0 km/h SO 7,9 C 11,8 C 0,0 km/h
19.09.2012 07:00 11,4 C 76 % 1015,6 hPa 0,0 l/m 0,0 km/h SO 7,3 C 11,4 C 0,0 km/h
19.09.2012 08:00 12,1 C 74 % 1016,2 hPa 0,0 l/m 0,0 km/h W 7,6 C 12,1 C 0,0 km/h
19.09.2012 09:00 13,1 C 76 % 1016,6 hPa 0,0 l/m 0,0 km/h W-SW 9,0 C 13,1 C 0,0 km/h
19.09.2012 10:00 14,1 C 82 % 1017,3 hPa 0,0 l/m 0,0 km/h N-NO 11,1 C 14,1 C 0,0 km/h
19.09.2012 11:00 17,2 C 68 % 1017,9 hPa 0,0 l/m 0,0 km/h N-NO 11,2 C 17,2 C 0,0 km/h
19.09.2012 12:00 19,4 C 55 % 1018,2 hPa 0,0 l/m 7,8 km/h N-NO 10,1 C 18,8 C 4,3 km/h
19.09.2012 13:00 17,8 C 55 % 1018,4 hPa 0,0 l/m 0,0 km/h O-SO 8,6 C 17,8 C 0,0 km/h
19.09.2012 14:00 20,1 C 51 % 1018,1 hPa 0,0 l/m 0,0 km/h NO 9,6 C 20,1 C 0,0 km/h
19.09.2012 15:00 20,2 C 44 % 1018,2 hPa 0,0 l/m 0,0 km/h N-NO 7,6 C 20,2 C 0,0 km/h
19.09.2012 16:00 25,0 C 32 % 1018,1 hPa 0,0 l/m 0,0 km/h N-NO 7,1 C 25,0 C 0,0 km/h
19.09.2012 17:00 19,2 C 40 % 1018,4 hPa 0,0 l/m 0,0 km/h O-NO 5,3 C 19,2 C 0,0 km/h
19.09.2012 18:00 16,3 C 52 % 1018,7 hPa 0,0 l/m 0,0 km/h O-SO 6,4 C 16,3 C 0,0 km/h
19.09.2012 19:00 13,5 C 64 % 1019,0 hPa 0,0 l/m 0,0 km/h O-NO 6,8 C 13,5 C 0,0 km/h
19.09.2012 20:00 10,1 C 74 % 1019,7 hPa 0,0 l/m 0,0 km/h O-SO 5,7 C 10,1 C 0,0 km/h
19.09.2012 21:00 7,9 C 78 % 1020,4 hPa 0,0 l/m 0,0 km/h SO 4,3 C 7,9 C 0,0 km/h
19.09.2012 22:00 7,8 C 81 % 1021,0 hPa 0,0 l/m 0,0 km/h O-SO 4,7 C 7,8 C 0,0 km/h
19.09.2012 23:00 6,9 C 83 % 1021,7 hPa 0,0 l/m 0,0 km/h O-NO 4,2 C 6,9 C 0,0 km/h
20.09.2012 00:00 6,4 C 83 % 1021,8 hPa 0,0 l/m 0,0 km/h NO 3,7 C 6,4 C 0,0 km/h
20.09.2012 01:00 6,8 C 83 % 1022,2 hPa 0,0 l/m 0,0 km/h NO 4,1 C 6,8 C 0,0 km/h
20.09.2012 02:00 6,3 C 83 % 1022,3 hPa 0,0 l/m 0,0 km/h O-SO 3,6 C 6,3 C 0,0 km/h
20.09.2012 03:00 5,8 C 83 % 1022,2 hPa 0,0 l/m 0,0 km/h SO 3,1 C 5,8 C 0,0 km/h
20.09.2012 04:00 4,6 C 83 % 1022,3 hPa 0,0 l/m 0,0 km/h NO 2,0 C 4,6 C 0,0 km/h
20.09.2012 05:00 4,6 C 83 % 1021,9 hPa 0,0 l/m 0,0 km/h NO 2,0 C 4,6 C 0,0 km/h
20.09.2012 06:00 4,2 C 82 % 1021,6 hPa 0,0 l/m 0,0 km/h NO 1,4 C 4,2 C 0,0 km/h
20.09.2012 07:00 3,8 C 82 % 1022,0 hPa 0,0 l/m 0,0 km/h SO 1,0 C 3,8 C 0,0 km/h
20.09.2012 08:00 4,7 C 81 % 1022,1 hPa 0,0 l/m 0,0 km/h SO 1,7 C 4,7 C 0,0 km/h
20.09.2012 09:00 10,8 C 80 % 1022,0 hPa 0,0 l/m 3,2 km/h N 7,5 C 10,8 C 1,8 km/h
20.09.2012 10:00 16,2 C 62 % 1022,1 hPa 0,0 l/m 0,0 km/h SW 8,9 C 16,2 C 0,0 km/h
20.09.2012 11:00 20,8 C 52 % 1021,8 hPa 0,0 l/m 1,9 km/h W-NW 10,6 C 20,8 C 1,1 km/h
20.09.2012 12:00 21,2 C 50 % 1021,6 hPa 0,0 l/m 11,0 km/h N-NW 10,4 C 19,7 C 6,1 km/h
20.09.2012 13:00 21,4 C 45 % 1021,0 hPa 0,0 l/m 0,0 km/h W-NW 9,0 C 21,4 C 0,0 km/h
20.09.2012 14:00 20,6 C 45 % 1020,4 hPa 0,0 l/m 6,5 km/h W-NW 8,2 C 20,6 C 3,6 km/h
20.09.2012 15:00 22,6 C 41 % 1019,7 hPa 0,0 l/m 11,7 km/h W-NW 8,7 C 21,1 C 6,5 km/h
20.09.2012 16:00 23,9 C 38 % 1019,3 hPa 0,0 l/m 3,2 km/h W-NW 8,7 C 23,9 C 1,8 km/h
20.09.2012 17:00 23,6 C 37 % 1019,2 hPa 0,0 l/m 6,5 km/h NO 8,0 C 23,6 C 3,6 km/h
20.09.2012 18:00 20,5 C 41 % 1019,0 hPa 0,0 l/m 0,0 km/h O-NO 6,8 C 20,5 C 0,0 km/h
20.09.2012 19:00 13,6 C 62 % 1019,2 hPa 0,0 l/m 0,0 km/h O-NO 6,5 C 13,6 C 0,0 km/h
20.09.2012 20:00 10,4 C 73 % 1019,5 hPa 0,0 l/m 0,0 km/h O-SO 5,8 C 10,4 C 0,0 km/h
20.09.2012 21:00 8,2 C 77 % 1019,4 hPa 0,0 l/m 0,0 km/h SO 4,4 C 8,2 C 0,0 km/h
20.09.2012 22:00 8,8 C 82 % 1019,5 hPa 0,0 l/m 7,1 km/h O-SO 5,9 C 8,3 C 4,0 km/h
20.09.2012 23:00 8,4 C 83 % 1019,4 hPa 0,0 l/m 0,0 km/h SO 5,7 C 8,4 C 0,0 km/h
21.09.2012 00:00 7,3 C 83 % 1019,1 hPa 0,0 l/m 0,0 km/h SO 4,6 C 7,3 C 0,0 km/h
21.09.2012 01:00 6,1 C 83 % 1018,9 hPa 0,0 l/m 0,0 km/h SO 3,4 C 6,1 C 0,0 km/h
21.09.2012 02:00 5,9 C 83 % 1018,8 hPa 0,0 l/m 0,0 km/h O-SO 3,2 C 5,9 C 0,0 km/h
21.09.2012 03:00 5,4 C 83 % 1018,2 hPa 0,0 l/m 1,9 km/h NO 2,7 C 5,4 C 1,1 km/h
21.09.2012 04:00 5,5 C 82 % 1018,1 hPa 0,0 l/m 0,0 km/h S-SO 2,7 C 5,5 C 0,0 km/h
21.09.2012 05:00 5,2 C 82 % 1017,5 hPa 0,0 l/m 0,0 km/h SO 2,4 C 5,2 C 0,0 km/h
21.09.2012 06:00 4,8 C 82 % 1017,2 hPa 0,0 l/m 0,0 km/h O-SO 2,0 C 4,8 C 0,0 km/h
21.09.2012 07:00 4,3 C 82 % 1017,3 hPa 0,0 l/m 0,0 km/h NO 1,5 C 4,3 C 0,0 km/h
21.09.2012 08:00 6,5 C 79 % 1016,9 hPa 0,0 l/m 0,0 km/h SO 3,1 C 6,5 C 0,0 km/h
21.09.2012 09:00 11,7 C 83 % 1016,8 hPa 0,0 l/m 1,9 km/h SO 8,9 C 11,7 C 1,1 km/h
21.09.2012 10:00 17,6 C 64 % 1016,6 hPa 0,0 l/m 0,0 km/h N-NO 10,7 C 17,6 C 0,0 km/h
21.09.2012 11:00 21,9 C 48 % 1016,2 hPa 0,0 l/m 0,0 km/h W-SW 10,4 C 21,9 C 0,0 km/h
21.09.2012 12:00 24,9 C 46 % 1015,1 hPa 0,0 l/m 0,0 km/h N-NO 12,5 C 24,9 C 0,0 km/h
21.09.2012 13:00 26,2 C 45 % 1014,2 hPa 0,0 l/m 1,9 km/h W-NW 13,3 C 26,2 C 1,1 km/h
21.09.2012 14:00 25,3 C 47 % 1013,2 hPa 0,0 l/m 10,4 km/h W-SW 13,2 C 24,4 C 5,8 km/h
21.09.2012 15:00 27,0 C 42 % 1012,4 hPa 0,0 l/m 13,6 km/h S-SW 13,0 C 25,9 C 7,6 km/h
21.09.2012 16:00 27,8 C 39 % 1011,3 hPa 0,0 l/m 5,2 km/h W-NW 12,6 C 27,8 C 2,9 km/h
21.09.2012 17:00 30,1 C 36 % 1010,5 hPa 0,0 l/m 8,4 km/h W-NW 13,4 C 29,9 C 4,7 km/h
21.09.2012 18:00 26,4 C 43 % 1010,2 hPa 0,0 l/m 3,2 km/h SO 12,8 C 26,4 C 1,8 km/h
21.09.2012 19:00 19,3 C 65 % 1010,2 hPa 0,0 l/m 0,0 km/h NO 12,6 C 19,3 C 0,0 km/h
21.09.2012 20:00 17,1 C 78 % 1010,8 hPa 0,0 l/m 0,0 km/h S-SO 13,2 C 17,1 C 0,0 km/h
21.09.2012 21:00 16,5 C 81 % 1010,8 hPa 0,7 l/m 3,2 km/h S-SW 13,2 C 16,5 C 1,8 km/h
21.09.2012 22:00 16,3 C 81 % 1010,6 hPa 0,4 l/m 4,5 km/h O-SO 13,0 C 16,3 C 2,5 km/h
21.09.2012 23:00 15,9 C 81 % 1009,2 hPa 0,4 l/m 0,0 km/h O 12,6 C 15,9 C 0,0 km/h
22.09.2012 00:00 14,1 C 81 % 1010,5 hPa 5,7 l/m 0,0 km/h O 10,9 C 14,1 C 0,0 km/h
22.09.2012 01:00 14,1 C 79 % 1010,7 hPa 2,1 l/m 0,0 km/h N-NW 10,5 C 14,1 C 0,0 km/h
22.09.2012 02:00 13,9 C 77 % 1010,9 hPa 2,8 l/m 0,0 km/h O-SO 9,9 C 13,9 C 0,0 km/h
22.09.2012 03:00 14,1 C 76 % 1010,6 hPa 1,1 l/m 0,0 km/h NO 9,9 C 14,1 C 0,0 km/h
22.09.2012 04:00 14,5 C 74 % 1010,5 hPa 0,0 l/m 0,0 km/h W-NW 9,9 C 14,5 C 0,0 km/h
22.09.2012 05:00 14,5 C 72 % 1010,9 hPa 0,0 l/m 0,0 km/h W-NW 9,5 C 14,5 C 0,0 km/h
22.09.2012 06:00 14,3 C 71 % 1011,4 hPa 0,4 l/m 0,0 km/h SW 9,1 C 14,3 C 0,0 km/h
22.09.2012 07:00 14,2 C 72 % 1011,6 hPa 0,0 l/m 0,0 km/h SW 9,2 C 14,2 C 0,0 km/h
22.09.2012 08:00 14,3 C 72 % 1011,9 hPa 0,4 l/m 0,0 km/h N-NW 9,3 C 14,3 C 0,0 km/h
22.09.2012 09:00 14,1 C 71 % 1012,5 hPa 0,0 l/m 0,0 km/h N-NO 8,9 C 14,1 C 0,0 km/h
22.09.2012 10:00 13,0 C 77 % 1013,6 hPa 0,0 l/m 0,0 km/h N-NO 9,1 C 13,0 C 0,0 km/h
22.09.2012 11:00 12,9 C 80 % 1014,3 hPa 0,0 l/m 0,0 km/h N-NO 9,5 C 12,9 C 0,0 km/h
22.09.2012 12:00 12,9 C 83 % 1014,8 hPa 0,0 l/m 0,0 km/h S-SO 10,1 C 12,9 C 0,0 km/h
22.09.2012 13:00 13,9 C 83 % 1015,3 hPa 0,0 l/m 1,3 km/h O-NO 11,1 C 13,9 C 0,7 km/h
22.09.2012 14:00 16,2 C 80 % 1015,1 hPa 0,0 l/m 0,0 km/h S-SW 12,7 C 16,2 C 0,0 km/h
22.09.2012 15:00 21,5 C 62 % 1015,2 hPa 0,0 l/m 3,9 km/h SO 13,9 C 21,5 C 2,2 km/h
22.09.2012 16:00 21,1 C 57 % 1015,5 hPa 0,0 l/m 0,0 km/h O-NO 12,2 C 21,1 C 0,0 km/h
22.09.2012 17:00 19,6 C 57 % 1015,6 hPa 0,0 l/m 0,0 km/h SO 10,8 C 19,6 C 0,0 km/h
22.09.2012 18:00 21,4 C 59 % 1016,2 hPa 0,0 l/m 0,0 km/h O-NO 13,0 C 21,4 C 0,0 km/h
22.09.2012 19:00 13,8 C 76 % 1016,4 hPa 0,0 l/m 0,0 km/h SO 9,6 C 13,8 C 0,0 km/h
22.09.2012 20:00 11,5 C 82 % 1016,5 hPa 0,0 l/m 0,0 km/h SO 8,5 C 11,5 C 0,0 km/h
22.09.2012 21:00 11,3 C 83 % 1016,7 hPa 0,0 l/m 0,0 km/h SO 8,5 C 11,3 C 0,0 km/h
22.09.2012 22:00 11,7 C 83 % 1016,5 hPa 0,0 l/m 0,0 km/h SO 8,9 C 11,7 C 0,0 km/h
22.09.2012 23:00 11,6 C 83 % 1016,4 hPa 0,0 l/m 0,0 km/h SO 8,8 C 11,6 C 0,0 km/h
23.09.2012 00:00 11,6 C 83 % 1016,3 hPa 0,0 l/m 0,0 km/h N-NO 8,8 C 11,6 C 0,0 km/h
23.09.2012 01:00 11,3 C 83 % 1015,9 hPa 0,0 l/m 0,0 km/h O-NO 8,5 C 11,3 C 0,0 km/h
23.09.2012 02:00 11,8 C 82 % 1015,3 hPa 0,0 l/m 0,0 km/h O-NO 8,8 C 11,8 C 0,0 km/h
23.09.2012 03:00 11,5 C 83 % 1014,3 hPa 0,0 l/m 0,0 km/h O-NO 8,7 C 11,5 C 0,0 km/h
23.09.2012 04:00 10,9 C 83 % 1014,1 hPa 0,0 l/m 0,0 km/h O-NO 8,1 C 10,9 C 0,0 km/h
23.09.2012 05:00 9,6 C 82 % 1013,6 hPa 0,0 l/m 0,0 km/h O 6,7 C 9,6 C 0,0 km/h
23.09.2012 06:00 9,1 C 81 % 1013,5 hPa 0,0 l/m 0,0 km/h O-SO 6,0 C 9,1 C 0,0 km/h
23.09.2012 07:00 9,2 C 80 % 1013,1 hPa 0,0 l/m 0,0 km/h SO 5,9 C 9,2 C 0,0 km/h
23.09.2012 08:00 9,9 C 78 % 1013,5 hPa 0,0 l/m 0,0 km/h NW 6,2 C 9,9 C 0,0 km/h
23.09.2012 09:00 13,2 C 82 % 1013,3 hPa 0,0 l/m 0,0 km/h NW 10,2 C 13,2 C 0,0 km/h
23.09.2012 10:00 16,3 C 81 % 1013,2 hPa 0,0 l/m 0,0 km/h W-NW 13,0 C 16,3 C 0,0 km/h
23.09.2012 11:00 18,4 C 69 % 1012,5 hPa 0,0 l/m 1,9 km/h NO 12,6 C 18,4 C 1,1 km/h
23.09.2012 12:00 22,3 C 60 % 1011,5 hPa 0,0 l/m 0,0 km/h W-NW 14,2 C 22,3 C 0,0 km/h
23.09.2012 13:00 21,4 C 59 % 1010,8 hPa 0,0 l/m 1,3 km/h W 13,0 C 21,4 C 0,7 km/h
23.09.2012 14:00 23,2 C 58 % 1009,3 hPa 0,0 l/m 0,0 km/h W 14,5 C 23,2 C 0,0 km/h
23.09.2012 15:00 23,5 C 59 % 1008,5 hPa 0,4 l/m 0,0 km/h NW 15,0 C 23,5 C 0,0 km/h
23.09.2012 16:00 26,9 C 52 % 1007,6 hPa 0,0 l/m 0,0 km/h W-NW 16,2 C 26,9 C 0,0 km/h
23.09.2012 17:00 26,1 C 53 % 1006,6 hPa 0,0 l/m 0,0 km/h W-NW 15,8 C 26,1 C 0,0 km/h
23.09.2012 18:00 20,1 C 68 % 1006,0 hPa 0,0 l/m 0,0 km/h W 14,0 C 20,1 C 0,0 km/h
23.09.2012 19:00 16,9 C 77 % 1005,8 hPa 0,0 l/m 0,0 km/h W 12,8 C 16,9 C 0,0 km/h
23.09.2012 20:00 14,1 C 82 % 1005,3 hPa 0,0 l/m 0,0 km/h O 11,1 C 14,1 C 0,0 km/h
23.09.2012 21:00 13,8 C 82 % 1004,6 hPa 0,0 l/m 0,0 km/h N-NO 10,8 C 13,8 C 0,0 km/h
23.09.2012 22:00 12,9 C 81 % 1003,6 hPa 0,0 l/m 0,0 km/h N-NO 9,7 C 12,9 C 0,0 km/h
23.09.2012 23:00 11,9 C 81 % 1003,2 hPa 0,0 l/m 0,0 km/h O 8,7 C 11,9 C 0,0 km/h
Min-Datum _ 20.09.12 19.09.12 23.09.12 - 17.09.12 - 20.09.12 20.09.12 17.09.12
_ Min-Zeit 07:19 16:19 23:19 - 03:19 - 07:19 07:19 03:19
Minimum _ 3,8 C 32 % 1003,2 hPa - 0,0 km/h - 1,0 C 3,8 C 0,0 km/h
Max-Datum _ 17.09.12 18.09.12 20.09.12 18.09.12 18.09.12 - 18.09.12 17.09.12 18.09.12
_ Max-Zeit 18:19 00:19 02:19 22:19 17:19 - 12:19 18:19 17:19
Maximum _ 32,1 C 83 % 1022,3 hPa 10,7 l/m 20,7 km/h
S-SW
- 16,9 C 32,1 C 11,5 km/h
S-SW
Durchschnitt _ 15,6 C 70 % 1014,4 hPa #40,2 l/m 1,2 km/h SO 9,5 C 15,6 C 0,7 km/h
www.sexauwetter.de